sensor_id;sensor_type;location;lat;lon;timestamp;P1;durP1;ratioP1;P2;durP2;ratioP2
10882;SDS011;5494;51.796;10.952;2022-12-10T00:01:47;127.05;;;21.23;;
10882;SDS011;5494;51.796;10.952;2022-12-10T00:04:17;138.48;;;24.13;;
10882;SDS011;5494;51.796;10.952;2022-12-10T00:06:46;68.93;;;17.05;;
10882;SDS011;5494;51.796;10.952;2022-12-10T00:09:16;130.65;;;21.30;;
10882;SDS011;5494;51.796;10.952;2022-12-10T00:11:46;44.08;;;14.32;;
10882;SDS011;5494;51.796;10.952;2022-12-10T00:14:17;51.53;;;14.77;;
10882;SDS011;5494;51.796;10.952;2022-12-10T00:16:45;51.00;;;15.18;;
10882;SDS011;5494;51.796;10.952;2022-12-10T00:19:13;64.82;;;14.95;;
10882;SDS011;5494;51.796;10.952;2022-12-10T00:21:41;68.78;;;15.15;;
10882;SDS011;5494;51.796;10.952;2022-12-10T00:24:14;73.13;;;16.23;;
10882;SDS011;5494;51.796;10.952;2022-12-10T00:26:43;47.58;;;14.02;;
10882;SDS011;5494;51.796;10.952;2022-12-10T00:29:12;44.22;;;15.98;;
10882;SDS011;5494;51.796;10.952;2022-12-10T00:31:44;42.85;;;14.30;;
10882;SDS011;5494;51.796;10.952;2022-12-10T00:34:12;44.90;;;14.13;;
10882;SDS011;5494;51.796;10.952;2022-12-10T00:36:41;39.53;;;14.95;;
10882;SDS011;5494;51.796;10.952;2022-12-10T00:39:13;49.60;;;18.27;;
10882;SDS011;5494;51.796;10.952;2022-12-10T00:41:45;31.65;;;13.18;;
10882;SDS011;5494;51.796;10.952;2022-12-10T00:44:14;44.10;;;13.82;;
10882;SDS011;5494;51.796;10.952;2022-12-10T00:46:44;31.70;;;11.82;;
10882;SDS011;5494;51.796;10.952;2022-12-10T00:49:12;30.50;;;13.07;;
10882;SDS011;5494;51.796;10.952;2022-12-10T00:51:41;33.03;;;13.32;;
10882;SDS011;5494;51.796;10.952;2022-12-10T00:54:10;29.50;;;12.88;;
10882;SDS011;5494;51.796;10.952;2022-12-10T00:56:38;30.55;;;10.82;;
10882;SDS011;5494;51.796;10.952;2022-12-10T00:59:07;33.83;;;12.60;;
10882;SDS011;5494;51.796;10.952;2022-12-10T01:01:36;35.95;;;13.32;;
10882;SDS011;5494;51.796;10.952;2022-12-10T01:04:09;29.52;;;11.55;;
10882;SDS011;5494;51.796;10.952;2022-12-10T01:06:41;32.05;;;13.45;;
10882;SDS011;5494;51.796;10.952;2022-12-10T01:09:12;31.05;;;12.70;;
10882;SDS011;5494;51.796;10.952;2022-12-10T01:11:44;30.00;;;13.13;;
10882;SDS011;5494;51.796;10.952;2022-12-10T01:14:15;33.47;;;13.45;;
10882;SDS011;5494;51.796;10.952;2022-12-10T01:16:47;35.63;;;14.18;;
10882;SDS011;5494;51.796;10.952;2022-12-10T01:19:17;38.00;;;15.18;;
10882;SDS011;5494;51.796;10.952;2022-12-10T01:21:45;32.10;;;13.48;;
10882;SDS011;5494;51.796;10.952;2022-12-10T01:24:17;35.25;;;14.15;;
10882;SDS011;5494;51.796;10.952;2022-12-10T01:26:45;28.13;;;11.90;;
10882;SDS011;5494;51.796;10.952;2022-12-10T01:29:13;31.90;;;14.05;;
10882;SDS011;5494;51.796;10.952;2022-12-10T01:31:42;32.10;;;13.10;;
10882;SDS011;5494;51.796;10.952;2022-12-10T01:34:14;39.65;;;15.50;;
10882;SDS011;5494;51.796;10.952;2022-12-10T01:36:44;34.13;;;15.82;;
10882;SDS011;5494;51.796;10.952;2022-12-10T01:39:17;33.08;;;14.63;;
10882;SDS011;5494;51.796;10.952;2022-12-10T01:41:48;27.33;;;11.00;;
10882;SDS011;5494;51.796;10.952;2022-12-10T01:47:37;35.83;;;13.52;;
10882;SDS011;5494;51.796;10.952;2022-12-10T01:50:06;29.05;;;14.00;;
10882;SDS011;5494;51.796;10.952;2022-12-10T01:52:37;29.42;;;13.65;;
10882;SDS011;5494;51.796;10.952;2022-12-10T01:55:07;35.10;;;15.00;;
10882;SDS011;5494;51.796;10.952;2022-12-10T01:58:07;31.35;;;13.63;;
10882;SDS011;5494;51.796;10.952;2022-12-10T02:00:41;28.60;;;13.27;;
10882;SDS011;5494;51.796;10.952;2022-12-10T02:03:23;26.75;;;12.70;;
10882;SDS011;5494;51.796;10.952;2022-12-10T02:06:06;29.05;;;12.70;;
10882;SDS011;5494;51.796;10.952;2022-12-10T02:08:52;25.35;;;11.85;;
10882;SDS011;5494;51.796;10.952;2022-12-10T02:11:33;28.90;;;13.02;;
10882;SDS011;5494;51.796;10.952;2022-12-10T02:14:14;24.25;;;11.23;;
10882;SDS011;5494;51.796;10.952;2022-12-10T02:16:51;28.77;;;12.63;;
10882;SDS011;5494;51.796;10.952;2022-12-10T02:19:33;29.35;;;12.82;;
10882;SDS011;5494;51.796;10.952;2022-12-10T02:22:20;30.00;;;12.23;;
10882;SDS011;5494;51.796;10.952;2022-12-10T02:24:54;26.90;;;12.63;;
10882;SDS011;5494;51.796;10.952;2022-12-10T02:27:28;26.85;;;12.32;;
10882;SDS011;5494;51.796;10.952;2022-12-10T02:30:09;25.73;;;11.23;;
10882;SDS011;5494;51.796;10.952;2022-12-10T02:32:38;28.30;;;11.77;;
10882;SDS011;5494;51.796;10.952;2022-12-10T02:35:11;27.65;;;12.23;;
10882;SDS011;5494;51.796;10.952;2022-12-10T02:37:47;26.30;;;12.30;;
10882;SDS011;5494;51.796;10.952;2022-12-10T02:40:22;32.28;;;13.18;;
10882;SDS011;5494;51.796;10.952;2022-12-10T02:42:54;26.63;;;12.98;;
10882;SDS011;5494;51.796;10.952;2022-12-10T02:45:25;26.48;;;12.50;;
10882;SDS011;5494;51.796;10.952;2022-12-10T02:47:58;30.58;;;13.40;;
10882;SDS011;5494;51.796;10.952;2022-12-10T02:50:36;27.92;;;13.20;;
10882;SDS011;5494;51.796;10.952;2022-12-10T02:53:05;30.08;;;13.50;;
10882;SDS011;5494;51.796;10.952;2022-12-10T02:55:37;37.20;;;14.15;;
10882;SDS011;5494;51.796;10.952;2022-12-10T02:58:26;33.97;;;13.38;;
10882;SDS011;5494;51.796;10.952;2022-12-10T03:01:07;31.95;;;13.93;;
10882;SDS011;5494;51.796;10.952;2022-12-10T03:03:52;34.85;;;13.95;;
10882;SDS011;5494;51.796;10.952;2022-12-10T03:06:30;37.28;;;14.45;;
10882;SDS011;5494;51.796;10.952;2022-12-10T03:09:05;33.17;;;13.75;;
10882;SDS011;5494;51.796;10.952;2022-12-10T03:11:40;29.88;;;13.90;;
10882;SDS011;5494;51.796;10.952;2022-12-10T03:14:12;34.60;;;13.05;;
10882;SDS011;5494;51.796;10.952;2022-12-10T03:16:49;30.85;;;13.07;;
10882;SDS011;5494;51.796;10.952;2022-12-10T03:19:23;29.85;;;13.68;;
10882;SDS011;5494;51.796;10.952;2022-12-10T03:22:07;28.40;;;13.20;;
10882;SDS011;5494;51.796;10.952;2022-12-10T03:24:38;31.30;;;12.80;;
10882;SDS011;5494;51.796;10.952;2022-12-10T03:27:11;27.95;;;12.45;;
10882;SDS011;5494;51.796;10.952;2022-12-10T03:29:44;30.27;;;13.55;;
10882;SDS011;5494;51.796;10.952;2022-12-10T03:32:22;34.33;;;14.23;;
10882;SDS011;5494;51.796;10.952;2022-12-10T03:34:54;29.05;;;13.07;;
10882;SDS011;5494;51.796;10.952;2022-12-10T03:37:26;33.72;;;14.55;;
10882;SDS011;5494;51.796;10.952;2022-12-10T03:39:56;31.75;;;13.00;;
10882;SDS011;5494;51.796;10.952;2022-12-10T03:42:26;34.45;;;14.25;;
10882;SDS011;5494;51.796;10.952;2022-12-10T03:44:54;38.22;;;13.65;;
10882;SDS011;5494;51.796;10.952;2022-12-10T03:47:23;30.63;;;13.80;;
10882;SDS011;5494;51.796;10.952;2022-12-10T03:49:51;33.35;;;13.32;;
10882;SDS011;5494;51.796;10.952;2022-12-10T03:52:20;35.33;;;14.50;;
10882;SDS011;5494;51.796;10.952;2022-12-10T03:54:48;30.45;;;14.00;;
10882;SDS011;5494;51.796;10.952;2022-12-10T03:57:16;35.95;;;15.90;;
10882;SDS011;5494;51.796;10.952;2022-12-10T03:59:44;29.38;;;13.25;;
10882;SDS011;5494;51.796;10.952;2022-12-10T04:02:13;36.53;;;15.77;;
10882;SDS011;5494;51.796;10.952;2022-12-10T04:04:42;32.60;;;13.27;;
10882;SDS011;5494;51.796;10.952;2022-12-10T04:07:10;31.00;;;12.27;;
10882;SDS011;5494;51.796;10.952;2022-12-10T04:09:39;34.40;;;12.77;;
10882;SDS011;5494;51.796;10.952;2022-12-10T04:12:07;30.48;;;13.00;;
10882;SDS011;5494;51.796;10.952;2022-12-10T04:14:35;34.53;;;14.23;;
10882;SDS011;5494;51.796;10.952;2022-12-10T04:17:21;34.67;;;12.68;;
10882;SDS011;5494;51.796;10.952;2022-12-10T04:19:50;33.72;;;13.35;;
10882;SDS011;5494;51.796;10.952;2022-12-10T04:22:18;37.40;;;14.25;;
10882;SDS011;5494;51.796;10.952;2022-12-10T04:25:04;33.97;;;13.73;;
10882;SDS011;5494;51.796;10.952;2022-12-10T04:27:47;36.50;;;13.20;;
10882;SDS011;5494;51.796;10.952;2022-12-10T04:30:15;33.78;;;12.57;;
10882;SDS011;5494;51.796;10.952;2022-12-10T04:32:43;35.45;;;12.32;;
10882;SDS011;5494;51.796;10.952;2022-12-10T04:35:12;29.90;;;12.98;;
10882;SDS011;5494;51.796;10.952;2022-12-10T04:37:40;32.95;;;13.15;;
10882;SDS011;5494;51.796;10.952;2022-12-10T04:40:09;33.75;;;12.55;;
10882;SDS011;5494;51.796;10.952;2022-12-10T04:42:38;34.97;;;13.02;;
10882;SDS011;5494;51.796;10.952;2022-12-10T04:45:06;29.52;;;11.75;;
10882;SDS011;5494;51.796;10.952;2022-12-10T04:47:35;30.58;;;12.95;;
10882;SDS011;5494;51.796;10.952;2022-12-10T04:50:04;32.80;;;12.82;;
10882;SDS011;5494;51.796;10.952;2022-12-10T04:52:34;33.50;;;12.60;;
10882;SDS011;5494;51.796;10.952;2022-12-10T04:55:03;28.77;;;12.43;;
10882;SDS011;5494;51.796;10.952;2022-12-10T04:57:32;32.25;;;12.93;;
10882;SDS011;5494;51.796;10.952;2022-12-10T05:00:00;31.73;;;12.07;;
10882;SDS011;5494;51.796;10.952;2022-12-10T05:02:28;30.83;;;11.75;;
10882;SDS011;5494;51.796;10.952;2022-12-10T05:04:56;30.30;;;12.82;;
10882;SDS011;5494;51.796;10.952;2022-12-10T05:07:24;33.83;;;12.93;;
10882;SDS011;5494;51.796;10.952;2022-12-10T05:09:54;30.40;;;10.88;;
10882;SDS011;5494;51.796;10.952;2022-12-10T05:12:22;25.50;;;11.32;;
10882;SDS011;5494;51.796;10.952;2022-12-10T05:14:50;30.90;;;12.20;;
10882;SDS011;5494;51.796;10.952;2022-12-10T05:17:18;27.05;;;11.05;;
10882;SDS011;5494;51.796;10.952;2022-12-10T05:19:46;28.75;;;11.52;;
10882;SDS011;5494;51.796;10.952;2022-12-10T05:22:14;30.40;;;12.10;;
10882;SDS011;5494;51.796;10.952;2022-12-10T05:25:01;34.40;;;13.25;;
10882;SDS011;5494;51.796;10.952;2022-12-10T05:27:30;30.60;;;12.52;;
10882;SDS011;5494;51.796;10.952;2022-12-10T05:29:59;24.52;;;10.27;;
10882;SDS011;5494;51.796;10.952;2022-12-10T05:32:27;28.40;;;11.45;;
10882;SDS011;5494;51.796;10.952;2022-12-10T05:34:55;26.38;;;10.48;;
10882;SDS011;5494;51.796;10.952;2022-12-10T05:37:23;27.80;;;10.32;;
10882;SDS011;5494;51.796;10.952;2022-12-10T05:39:51;28.48;;;11.55;;
10882;SDS011;5494;51.796;10.952;2022-12-10T05:42:21;28.65;;;10.25;;
10882;SDS011;5494;51.796;10.952;2022-12-10T05:44:49;31.10;;;12.48;;
10882;SDS011;5494;51.796;10.952;2022-12-10T05:47:17;30.40;;;11.68;;
10882;SDS011;5494;51.796;10.952;2022-12-10T05:49:45;29.23;;;11.70;;
10882;SDS011;5494;51.796;10.952;2022-12-10T05:52:18;32.88;;;12.88;;
10882;SDS011;5494;51.796;10.952;2022-12-10T05:54:46;36.90;;;13.93;;
10882;SDS011;5494;51.796;10.952;2022-12-10T05:57:14;31.88;;;11.30;;
10882;SDS011;5494;51.796;10.952;2022-12-10T05:59:43;33.28;;;12.23;;
10882;SDS011;5494;51.796;10.952;2022-12-10T06:02:11;36.50;;;12.60;;
10882;SDS011;5494;51.796;10.952;2022-12-10T06:04:39;36.20;;;13.35;;
10882;SDS011;5494;51.796;10.952;2022-12-10T06:07:07;37.20;;;14.57;;
10882;SDS011;5494;51.796;10.952;2022-12-10T06:09:36;31.10;;;12.75;;
10882;SDS011;5494;51.796;10.952;2022-12-10T06:12:05;35.38;;;13.65;;
10882;SDS011;5494;51.796;10.952;2022-12-10T06:14:33;36.03;;;14.70;;
10882;SDS011;5494;51.796;10.952;2022-12-10T06:17:02;43.60;;;16.00;;
10882;SDS011;5494;51.796;10.952;2022-12-10T06:19:30;40.63;;;15.02;;
10882;SDS011;5494;51.796;10.952;2022-12-10T06:21:58;37.75;;;15.18;;
10882;SDS011;5494;51.796;10.952;2022-12-10T06:24:27;44.10;;;15.68;;
10882;SDS011;5494;51.796;10.952;2022-12-10T06:26:56;40.35;;;14.88;;
10882;SDS011;5494;51.796;10.952;2022-12-10T06:29:25;40.47;;;15.52;;
10882;SDS011;5494;51.796;10.952;2022-12-10T06:31:53;46.20;;;16.48;;
10882;SDS011;5494;51.796;10.952;2022-12-10T06:34:22;42.83;;;16.73;;
10882;SDS011;5494;51.796;10.952;2022-12-10T06:36:52;41.92;;;17.02;;
10882;SDS011;5494;51.796;10.952;2022-12-10T06:39:20;48.80;;;17.35;;
10882;SDS011;5494;51.796;10.952;2022-12-10T06:41:48;44.67;;;16.42;;
10882;SDS011;5494;51.796;10.952;2022-12-10T06:44:24;51.33;;;20.50;;
10882;SDS011;5494;51.796;10.952;2022-12-10T06:46:52;43.78;;;18.55;;
10882;SDS011;5494;51.796;10.952;2022-12-10T06:49:20;49.78;;;19.13;;
10882;SDS011;5494;51.796;10.952;2022-12-10T06:51:52;50.28;;;20.20;;
10882;SDS011;5494;51.796;10.952;2022-12-10T06:54:20;53.08;;;18.55;;
10882;SDS011;5494;51.796;10.952;2022-12-10T06:56:48;49.88;;;17.73;;
10882;SDS011;5494;51.796;10.952;2022-12-10T06:59:16;48.35;;;17.27;;
10882;SDS011;5494;51.796;10.952;2022-12-10T07:01:46;45.05;;;17.65;;
10882;SDS011;5494;51.796;10.952;2022-12-10T07:04:15;47.70;;;18.83;;
10882;SDS011;5494;51.796;10.952;2022-12-10T07:06:43;49.15;;;18.58;;
10882;SDS011;5494;51.796;10.952;2022-12-10T07:09:13;46.47;;;17.77;;
10882;SDS011;5494;51.796;10.952;2022-12-10T07:11:42;42.63;;;17.45;;
10882;SDS011;5494;51.796;10.952;2022-12-10T07:14:11;46.28;;;16.70;;
10882;SDS011;5494;51.796;10.952;2022-12-10T07:16:42;50.10;;;17.88;;
10882;SDS011;5494;51.796;10.952;2022-12-10T07:19:11;50.05;;;17.98;;
10882;SDS011;5494;51.796;10.952;2022-12-10T07:21:40;48.45;;;17.90;;
10882;SDS011;5494;51.796;10.952;2022-12-10T07:24:11;50.22;;;17.20;;
10882;SDS011;5494;51.796;10.952;2022-12-10T07:26:45;43.47;;;16.13;;
10882;SDS011;5494;51.796;10.952;2022-12-10T07:29:15;51.33;;;16.98;;
10882;SDS011;5494;51.796;10.952;2022-12-10T07:31:46;48.10;;;17.48;;
10882;SDS011;5494;51.796;10.952;2022-12-10T07:34:16;43.47;;;15.52;;
10882;SDS011;5494;51.796;10.952;2022-12-10T07:36:44;46.38;;;17.23;;
10882;SDS011;5494;51.796;10.952;2022-12-10T07:39:13;47.17;;;16.90;;
10882;SDS011;5494;51.796;10.952;2022-12-10T07:41:44;47.33;;;17.08;;
10882;SDS011;5494;51.796;10.952;2022-12-10T07:44:16;43.50;;;14.60;;
10882;SDS011;5494;51.796;10.952;2022-12-10T07:46:47;38.25;;;15.48;;
10882;SDS011;5494;51.796;10.952;2022-12-10T07:49:17;43.42;;;17.17;;
10882;SDS011;5494;51.796;10.952;2022-12-10T07:51:49;40.63;;;15.95;;
10882;SDS011;5494;51.796;10.952;2022-12-10T07:54:19;44.05;;;16.70;;
10882;SDS011;5494;51.796;10.952;2022-12-10T07:56:47;44.75;;;16.55;;
10882;SDS011;5494;51.796;10.952;2022-12-10T07:59:16;40.38;;;16.00;;
10882;SDS011;5494;51.796;10.952;2022-12-10T08:01:44;35.97;;;15.55;;
10882;SDS011;5494;51.796;10.952;2022-12-10T08:04:12;31.15;;;13.85;;
10882;SDS011;5494;51.796;10.952;2022-12-10T08:06:40;38.65;;;15.38;;
10882;SDS011;5494;51.796;10.952;2022-12-10T08:09:09;34.58;;;14.77;;
10882;SDS011;5494;51.796;10.952;2022-12-10T08:11:39;38.92;;;18.77;;
10882;SDS011;5494;51.796;10.952;2022-12-10T08:14:08;34.55;;;14.55;;
10882;SDS011;5494;51.796;10.952;2022-12-10T08:16:36;37.38;;;14.48;;
10882;SDS011;5494;51.796;10.952;2022-12-10T08:19:04;35.42;;;14.30;;
10882;SDS011;5494;51.796;10.952;2022-12-10T08:21:32;32.05;;;13.18;;
10882;SDS011;5494;51.796;10.952;2022-12-10T08:24:00;33.50;;;14.73;;
10882;SDS011;5494;51.796;10.952;2022-12-10T08:26:31;32.15;;;14.55;;
10882;SDS011;5494;51.796;10.952;2022-12-10T08:29:01;27.80;;;12.70;;
10882;SDS011;5494;51.796;10.952;2022-12-10T08:31:29;28.83;;;14.23;;
10882;SDS011;5494;51.796;10.952;2022-12-10T08:34:03;32.17;;;13.90;;
10882;SDS011;5494;51.796;10.952;2022-12-10T08:36:32;32.70;;;14.25;;
10882;SDS011;5494;51.796;10.952;2022-12-10T08:39:00;26.05;;;11.43;;
10882;SDS011;5494;51.796;10.952;2022-12-10T08:41:28;29.48;;;13.57;;
10882;SDS011;5494;51.796;10.952;2022-12-10T08:43:56;29.95;;;13.70;;
10882;SDS011;5494;51.796;10.952;2022-12-10T08:46:26;25.85;;;11.95;;
10882;SDS011;5494;51.796;10.952;2022-12-10T08:48:56;25.08;;;12.52;;
10882;SDS011;5494;51.796;10.952;2022-12-10T08:51:25;23.77;;;11.20;;
10882;SDS011;5494;51.796;10.952;2022-12-10T08:53:54;28.02;;;12.38;;
10882;SDS011;5494;51.796;10.952;2022-12-10T08:56:23;30.95;;;12.95;;
10882;SDS011;5494;51.796;10.952;2022-12-10T08:58:51;28.23;;;12.82;;
10882;SDS011;5494;51.796;10.952;2022-12-10T09:01:19;26.08;;;12.35;;
10882;SDS011;5494;51.796;10.952;2022-12-10T09:03:49;30.90;;;14.13;;
10882;SDS011;5494;51.796;10.952;2022-12-10T09:06:18;30.67;;;14.15;;
10882;SDS011;5494;51.796;10.952;2022-12-10T09:08:51;31.60;;;14.32;;
10882;SDS011;5494;51.796;10.952;2022-12-10T09:11:21;33.45;;;14.73;;
10882;SDS011;5494;51.796;10.952;2022-12-10T09:13:52;34.10;;;15.70;;
10882;SDS011;5494;51.796;10.952;2022-12-10T09:16:20;43.70;;;18.35;;
10882;SDS011;5494;51.796;10.952;2022-12-10T09:18:55;37.53;;;18.23;;
10882;SDS011;5494;51.796;10.952;2022-12-10T09:21:24;56.63;;;22.10;;
10882;SDS011;5494;51.796;10.952;2022-12-10T09:23:53;58.40;;;22.90;;
10882;SDS011;5494;51.796;10.952;2022-12-10T09:26:24;55.05;;;23.33;;
10882;SDS011;5494;51.796;10.952;2022-12-10T09:28:53;57.05;;;22.70;;
10882;SDS011;5494;51.796;10.952;2022-12-10T09:31:23;80.95;;;25.42;;
10882;SDS011;5494;51.796;10.952;2022-12-10T09:33:52;67.35;;;22.40;;
10882;SDS011;5494;51.796;10.952;2022-12-10T09:36:22;84.63;;;21.75;;
10882;SDS011;5494;51.796;10.952;2022-12-10T09:38:58;88.82;;;22.08;;
10882;SDS011;5494;51.796;10.952;2022-12-10T09:41:33;67.63;;;20.80;;
10882;SDS011;5494;51.796;10.952;2022-12-10T09:44:26;70.13;;;22.13;;
10882;SDS011;5494;51.796;10.952;2022-12-10T09:47:09;91.25;;;22.33;;
10882;SDS011;5494;51.796;10.952;2022-12-10T09:49:43;70.32;;;22.73;;
10882;SDS011;5494;51.796;10.952;2022-12-10T09:52:26;70.93;;;21.33;;
10882;SDS011;5494;51.796;10.952;2022-12-10T09:55:03;76.32;;;21.50;;
10882;SDS011;5494;51.796;10.952;2022-12-10T09:57:41;57.35;;;21.30;;
10882;SDS011;5494;51.796;10.952;2022-12-10T10:00:17;66.15;;;24.55;;
10882;SDS011;5494;51.796;10.952;2022-12-10T10:02:50;70.25;;;23.92;;
10882;SDS011;5494;51.796;10.952;2022-12-10T10:05:20;71.78;;;25.33;;
10882;SDS011;5494;51.796;10.952;2022-12-10T10:07:53;73.13;;;23.00;;
10882;SDS011;5494;51.796;10.952;2022-12-10T10:10:27;59.38;;;20.40;;
10882;SDS011;5494;51.796;10.952;2022-12-10T10:12:58;63.22;;;22.90;;
10882;SDS011;5494;51.796;10.952;2022-12-10T10:15:40;58.00;;;20.75;;
10882;SDS011;5494;51.796;10.952;2022-12-10T10:18:12;65.32;;;18.65;;
10882;SDS011;5494;51.796;10.952;2022-12-10T10:20:50;62.15;;;20.45;;
10882;SDS011;5494;51.796;10.952;2022-12-10T10:23:20;65.32;;;22.60;;
10882;SDS011;5494;51.796;10.952;2022-12-10T10:25:48;65.53;;;21.63;;
10882;SDS011;5494;51.796;10.952;2022-12-10T10:28:18;67.30;;;19.92;;
10882;SDS011;5494;51.796;10.952;2022-12-10T10:30:49;63.28;;;21.85;;
10882;SDS011;5494;51.796;10.952;2022-12-10T10:33:20;79.07;;;24.70;;
10882;SDS011;5494;51.796;10.952;2022-12-10T10:35:49;58.22;;;21.77;;
10882;SDS011;5494;51.796;10.952;2022-12-10T10:38:25;68.78;;;20.30;;
10882;SDS011;5494;51.796;10.952;2022-12-10T10:40:57;63.03;;;21.40;;
10882;SDS011;5494;51.796;10.952;2022-12-10T10:43:31;56.10;;;20.75;;
10882;SDS011;5494;51.796;10.952;2022-12-10T10:46:10;60.33;;;20.67;;
10882;SDS011;5494;51.796;10.952;2022-12-10T10:48:41;53.72;;;19.90;;
10882;SDS011;5494;51.796;10.952;2022-12-10T10:51:15;61.33;;;19.92;;
10882;SDS011;5494;51.796;10.952;2022-12-10T10:53:51;53.20;;;19.10;;
10882;SDS011;5494;51.796;10.952;2022-12-10T10:56:21;51.08;;;20.60;;
10882;SDS011;5494;51.796;10.952;2022-12-10T10:58:53;49.28;;;19.13;;
10882;SDS011;5494;51.796;10.952;2022-12-10T11:01:42;49.92;;;17.77;;
10882;SDS011;5494;51.796;10.952;2022-12-10T11:04:14;53.25;;;18.65;;
10882;SDS011;5494;51.796;10.952;2022-12-10T11:06:45;51.03;;;19.60;;
10882;SDS011;5494;51.796;10.952;2022-12-10T11:09:15;48.42;;;17.95;;
10882;SDS011;5494;51.796;10.952;2022-12-10T11:11:52;49.17;;;19.48;;
10882;SDS011;5494;51.796;10.952;2022-12-10T11:14:29;49.53;;;19.95;;
10882;SDS011;5494;51.796;10.952;2022-12-10T11:17:12;44.35;;;18.80;;
10882;SDS011;5494;51.796;10.952;2022-12-10T11:19:53;48.88;;;19.33;;
10882;SDS011;5494;51.796;10.952;2022-12-10T11:22:27;44.88;;;18.30;;
10882;SDS011;5494;51.796;10.952;2022-12-10T11:24:58;45.45;;;17.98;;
10882;SDS011;5494;51.796;10.952;2022-12-10T11:27:32;41.22;;;19.50;;
10882;SDS011;5494;51.796;10.952;2022-12-10T11:30:13;40.83;;;18.33;;
10882;SDS011;5494;51.796;10.952;2022-12-10T11:32:53;39.33;;;16.30;;
10882;SDS011;5494;51.796;10.952;2022-12-10T11:35:42;46.40;;;18.50;;
10882;SDS011;5494;51.796;10.952;2022-12-10T11:38:23;43.90;;;17.20;;
10882;SDS011;5494;51.796;10.952;2022-12-10T11:41:00;40.15;;;17.70;;
10882;SDS011;5494;51.796;10.952;2022-12-10T11:43:52;41.85;;;16.90;;
10882;SDS011;5494;51.796;10.952;2022-12-10T11:46:53;34.97;;;13.98;;
10882;SDS011;5494;51.796;10.952;2022-12-10T11:49:55;40.95;;;16.33;;
10882;SDS011;5494;51.796;10.952;2022-12-10T11:52:44;42.83;;;17.00;;
10882;SDS011;5494;51.796;10.952;2022-12-10T11:55:27;40.63;;;18.50;;
10882;SDS011;5494;51.796;10.952;2022-12-10T11:58:14;36.47;;;15.00;;
10882;SDS011;5494;51.796;10.952;2022-12-10T12:01:02;34.75;;;14.88;;
10882;SDS011;5494;51.796;10.952;2022-12-10T12:03:51;34.38;;;14.85;;
10882;SDS011;5494;51.796;10.952;2022-12-10T12:06:53;34.25;;;15.40;;
10882;SDS011;5494;51.796;10.952;2022-12-10T12:09:45;37.05;;;16.02;;
10882;SDS011;5494;51.796;10.952;2022-12-10T12:12:30;35.55;;;15.10;;
10882;SDS011;5494;51.796;10.952;2022-12-10T12:15:13;39.78;;;15.77;;
10882;SDS011;5494;51.796;10.952;2022-12-10T12:17:51;35.65;;;14.18;;
10882;SDS011;5494;51.796;10.952;2022-12-10T12:20:28;38.85;;;16.70;;
10882;SDS011;5494;51.796;10.952;2022-12-10T12:23:00;36.60;;;15.63;;
10882;SDS011;5494;51.796;10.952;2022-12-10T12:25:42;35.22;;;14.70;;
10882;SDS011;5494;51.796;10.952;2022-12-10T12:28:19;34.25;;;14.35;;
10882;SDS011;5494;51.796;10.952;2022-12-10T12:31:05;36.17;;;14.70;;
10882;SDS011;5494;51.796;10.952;2022-12-10T12:33:39;36.03;;;14.65;;
10882;SDS011;5494;51.796;10.952;2022-12-10T12:36:15;35.70;;;15.20;;
10882;SDS011;5494;51.796;10.952;2022-12-10T12:38:50;34.58;;;14.95;;
10882;SDS011;5494;51.796;10.952;2022-12-10T12:41:29;33.55;;;14.18;;
10882;SDS011;5494;51.796;10.952;2022-12-10T12:44:07;33.03;;;15.18;;
10882;SDS011;5494;51.796;10.952;2022-12-10T12:46:47;28.30;;;14.05;;
10882;SDS011;5494;51.796;10.952;2022-12-10T12:49:18;28.25;;;13.98;;
10882;SDS011;5494;51.796;10.952;2022-12-10T12:51:56;28.38;;;13.10;;
10882;SDS011;5494;51.796;10.952;2022-12-10T12:54:32;32.30;;;14.35;;
10882;SDS011;5494;51.796;10.952;2022-12-10T12:57:03;29.17;;;13.90;;
10882;SDS011;5494;51.796;10.952;2022-12-10T12:59:45;30.13;;;13.55;;
10882;SDS011;5494;51.796;10.952;2022-12-10T13:02:40;31.42;;;13.57;;
10882;SDS011;5494;51.796;10.952;2022-12-10T13:05:21;30.10;;;14.18;;
10882;SDS011;5494;51.796;10.952;2022-12-10T13:11:17;35.05;;;14.00;;
10882;SDS011;5494;51.796;10.952;2022-12-10T13:14:03;34.83;;;16.15;;
10882;SDS011;5494;51.796;10.952;2022-12-10T13:16:48;35.50;;;14.55;;
10882;SDS011;5494;51.796;10.952;2022-12-10T13:19:30;35.30;;;14.52;;
10882;SDS011;5494;51.796;10.952;2022-12-10T13:22:00;35.03;;;15.07;;
10882;SDS011;5494;51.796;10.952;2022-12-10T13:24:43;37.75;;;14.02;;
10882;SDS011;5494;51.796;10.952;2022-12-10T13:27:28;35.60;;;15.57;;
10882;SDS011;5494;51.796;10.952;2022-12-10T13:30:00;35.22;;;14.77;;
10882;SDS011;5494;51.796;10.952;2022-12-10T13:32:53;34.10;;;15.40;;
10882;SDS011;5494;51.796;10.952;2022-12-10T13:35:55;33.60;;;13.60;;
10882;SDS011;5494;51.796;10.952;2022-12-10T13:38:38;29.65;;;13.43;;
10882;SDS011;5494;51.796;10.952;2022-12-10T13:41:09;35.58;;;14.60;;
10882;SDS011;5494;51.796;10.952;2022-12-10T13:43:57;31.80;;;14.07;;
10882;SDS011;5494;51.796;10.952;2022-12-10T13:46:51;37.13;;;16.20;;
10882;SDS011;5494;51.796;10.952;2022-12-10T13:49:24;32.40;;;15.73;;
10882;SDS011;5494;51.796;10.952;2022-12-10T13:51:58;33.03;;;13.93;;
10882;SDS011;5494;51.796;10.952;2022-12-10T13:58:00;29.60;;;13.27;;
10882;SDS011;5494;51.796;10.952;2022-12-10T14:00:44;31.65;;;13.45;;
10882;SDS011;5494;51.796;10.952;2022-12-10T14:06:48;33.20;;;13.27;;
10882;SDS011;5494;51.796;10.952;2022-12-10T14:09:21;32.20;;;14.05;;
10882;SDS011;5494;51.796;10.952;2022-12-10T14:11:54;30.65;;;14.35;;
10882;SDS011;5494;51.796;10.952;2022-12-10T14:14:30;29.48;;;13.57;;
10882;SDS011;5494;51.796;10.952;2022-12-10T14:17:02;30.25;;;12.27;;
10882;SDS011;5494;51.796;10.952;2022-12-10T14:19:34;27.90;;;11.85;;
10882;SDS011;5494;51.796;10.952;2022-12-10T14:22:04;30.02;;;13.20;;
10882;SDS011;5494;51.796;10.952;2022-12-10T14:24:35;35.00;;;13.98;;
10882;SDS011;5494;51.796;10.952;2022-12-10T14:27:13;31.75;;;12.43;;
10882;SDS011;5494;51.796;10.952;2022-12-10T14:29:44;32.55;;;13.05;;
10882;SDS011;5494;51.796;10.952;2022-12-10T14:32:14;36.30;;;12.98;;
10882;SDS011;5494;51.796;10.952;2022-12-10T14:34:47;30.67;;;13.77;;
10882;SDS011;5494;51.796;10.952;2022-12-10T14:37:22;32.33;;;12.30;;
10882;SDS011;5494;51.796;10.952;2022-12-10T14:39:55;36.25;;;15.25;;
10882;SDS011;5494;51.796;10.952;2022-12-10T14:42:24;29.85;;;13.18;;
10882;SDS011;5494;51.796;10.952;2022-12-10T14:44:54;29.15;;;12.32;;
10882;SDS011;5494;51.796;10.952;2022-12-10T14:47:27;27.23;;;11.50;;
10882;SDS011;5494;51.796;10.952;2022-12-10T14:50:11;26.30;;;11.05;;
10882;SDS011;5494;51.796;10.952;2022-12-10T14:52:41;34.03;;;13.10;;
10882;SDS011;5494;51.796;10.952;2022-12-10T14:55:18;25.92;;;12.02;;
10882;SDS011;5494;51.796;10.952;2022-12-10T14:57:51;32.33;;;13.73;;
10882;SDS011;5494;51.796;10.952;2022-12-10T15:00:26;29.75;;;12.77;;
10882;SDS011;5494;51.796;10.952;2022-12-10T15:02:56;29.52;;;12.52;;
10882;SDS011;5494;51.796;10.952;2022-12-10T15:05:30;28.55;;;12.32;;
10882;SDS011;5494;51.796;10.952;2022-12-10T15:08:00;28.45;;;12.50;;
10882;SDS011;5494;51.796;10.952;2022-12-10T15:10:34;33.53;;;13.57;;